sensor_id;sensor_type;location;lat;lon;timestamp;pressure;altitude;pressure_sealevel;temperature;humidity
68669;BME280;55652;49.454;7.798;2022-09-09T04:54:08;98177.03;;;25.50;49.93
68669;BME280;55652;49.454;7.798;2022-09-09T04:56:34;98175.50;;;25.68;49.46
68669;BME280;55652;49.454;7.798;2022-09-09T04:58:59;98178.66;;;25.80;48.91
68669;BME280;55652;49.454;7.798;2022-09-09T05:01:24;98170.34;;;25.90;48.56
68669;BME280;55652;49.454;7.798;2022-09-09T05:03:51;98183.88;;;26.01;48.52
68669;BME280;55652;49.454;7.798;2022-09-09T05:06:20;98184.56;;;26.11;48.04
68669;BME280;55652;49.454;7.798;2022-09-09T05:08:46;98189.69;;;26.18;47.57
68669;BME280;55652;49.454;7.798;2022-09-09T05:13:47;98191.56;;;26.42;50.81
68669;BME280;55652;49.454;7.798;2022-09-09T05:16:14;98195.34;;;26.46;47.58
68669;BME280;55652;49.454;7.798;2022-09-09T05:18:40;98189.78;;;26.51;47.67
68669;BME280;55652;49.454;7.798;2022-09-09T05:21:07;98192.47;;;26.56;47.14
68669;BME280;55652;49.454;7.798;2022-09-09T05:23:36;98187.53;;;26.58;47.14
68669;BME280;55652;49.454;7.798;2022-09-09T05:26:03;98183.91;;;26.63;46.98
68669;BME280;55652;49.454;7.798;2022-09-09T05:28:29;98182.19;;;26.67;47.14
68669;BME280;55652;49.454;7.798;2022-09-09T05:31:00;98181.56;;;26.70;47.23
68669;BME280;55652;49.454;7.798;2022-09-09T05:33:29;98177.88;;;26.79;47.81
68669;BME280;55652;49.454;7.798;2022-09-09T05:35:58;98188.38;;;26.91;47.60
68669;BME280;55652;49.454;7.798;2022-09-09T05:38:24;98192.97;;;26.96;47.41
68669;BME280;55652;49.454;7.798;2022-09-09T05:40:51;98201.63;;;27.03;49.98
68669;BME280;55652;49.454;7.798;2022-09-09T05:43:17;98190.06;;;27.06;47.63
68669;BME280;55652;49.454;7.798;2022-09-09T05:45:42;98194.84;;;27.14;47.13
68669;BME280;55652;49.454;7.798;2022-09-09T05:48:08;98199.47;;;27.19;47.74
68669;BME280;55652;49.454;7.798;2022-09-09T05:50:33;98198.66;;;27.18;47.14
68669;BME280;55652;49.454;7.798;2022-09-09T05:52:58;98201.91;;;27.20;47.18
68669;BME280;55652;49.454;7.798;2022-09-09T05:55:24;98207.38;;;27.20;46.76
68669;BME280;55652;49.454;7.798;2022-09-09T05:57:50;98210.66;;;27.22;46.43
68669;BME280;55652;49.454;7.798;2022-09-09T06:00:17;98213.91;;;27.25;46.59
68669;BME280;55652;49.454;7.798;2022-09-09T06:02:42;98218.38;;;27.20;47.35
68669;BME280;55652;49.454;7.798;2022-09-09T06:05:08;98221.97;;;27.35;48.05
68669;BME280;55652;49.454;7.798;2022-09-09T06:07:35;98227.16;;;27.36;46.83
68669;BME280;55652;49.454;7.798;2022-09-09T06:10:01;98225.97;;;27.42;47.12
68669;BME280;55652;49.454;7.798;2022-09-09T06:12:26;98228.19;;;27.40;47.10
68669;BME280;55652;49.454;7.798;2022-09-09T06:14:51;98216.81;;;27.47;46.92
68669;BME280;55652;49.454;7.798;2022-09-09T06:17:17;98222.28;;;27.47;46.60
68669;BME280;55652;49.454;7.798;2022-09-09T06:19:42;98228.28;;;27.49;47.05
68669;BME280;55652;49.454;7.798;2022-09-09T06:22:07;98213.16;;;27.52;46.89
68669;BME280;55652;49.454;7.798;2022-09-09T06:24:34;98206.84;;;27.51;46.81
68669;BME280;55652;49.454;7.798;2022-09-09T06:27:00;98213.16;;;27.52;46.58
68669;BME280;55652;49.454;7.798;2022-09-09T06:29:25;98215.63;;;27.53;46.55
68669;BME280;55652;49.454;7.798;2022-09-09T06:31:50;98214.19;;;27.56;48.43
68669;BME280;55652;49.454;7.798;2022-09-09T06:34:16;98215.91;;;27.65;47.28
68669;BME280;55652;49.454;7.798;2022-09-09T06:36:41;98222.13;;;27.71;47.03
68669;BME280;55652;49.454;7.798;2022-09-09T06:39:08;98217.94;;;27.74;47.12
68669;BME280;55652;49.454;7.798;2022-09-09T06:41:36;98212.69;;;27.77;46.26
68669;BME280;55652;49.454;7.798;2022-09-09T06:44:03;98214.00;;;27.80;46.21
68669;BME280;55652;49.454;7.798;2022-09-09T06:46:31;98213.44;;;27.83;46.26
68669;BME280;55652;49.454;7.798;2022-09-09T06:48:58;98212.00;;;27.85;46.07
68669;BME280;55652;49.454;7.798;2022-09-09T06:51:36;98211.28;;;28.07;46.08
68669;BME280;55652;49.454;7.798;2022-09-09T06:54:03;98216.69;;;28.13;45.62
68669;BME280;55652;49.454;7.798;2022-09-09T06:56:33;98220.94;;;28.05;45.73
68669;BME280;55652;49.454;7.798;2022-09-09T06:59:01;98208.97;;;28.01;45.51
68669;BME280;55652;49.454;7.798;2022-09-09T07:01:34;98212.91;;;28.08;46.66
68669;BME280;55652;49.454;7.798;2022-09-09T07:04:00;98213.22;;;28.07;46.31
68669;BME280;55652;49.454;7.798;2022-09-09T07:06:32;98219.22;;;28.09;45.75
68669;BME280;55652;49.454;7.798;2022-09-09T07:09:01;98221.75;;;28.05;45.59
68669;BME280;55652;49.454;7.798;2022-09-09T07:11:30;98213.03;;;28.03;46.17
68669;BME280;55652;49.454;7.798;2022-09-09T07:13:58;98210.78;;;28.05;45.99
68669;BME280;55652;49.454;7.798;2022-09-09T07:16:26;98213.22;;;28.07;46.63
68669;BME280;55652;49.454;7.798;2022-09-09T07:18:53;98217.28;;;28.09;48.80
68669;BME280;55652;49.454;7.798;2022-09-09T07:21:23;98219.31;;;28.18;46.60
68669;BME280;55652;49.454;7.798;2022-09-09T07:23:50;98219.84;;;28.20;46.58
68669;BME280;55652;49.454;7.798;2022-09-09T07:26:18;98213.19;;;28.21;46.59
68669;BME280;55652;49.454;7.798;2022-09-09T07:28:47;98223.56;;;28.24;46.53
68669;BME280;55652;49.454;7.798;2022-09-09T07:31:24;98223.06;;;28.22;46.05
68669;BME280;55652;49.454;7.798;2022-09-09T07:33:50;98233.47;;;28.25;46.58
68669;BME280;55652;49.454;7.798;2022-09-09T07:36:17;98230.41;;;28.26;46.50
68669;BME280;55652;49.454;7.798;2022-09-09T07:38:45;98228.44;;;28.27;46.27
68669;BME280;55652;49.454;7.798;2022-09-09T07:41:14;98229.28;;;28.27;46.65
68669;BME280;55652;49.454;7.798;2022-09-09T07:43:44;98229.59;;;28.26;46.34
68669;BME280;55652;49.454;7.798;2022-09-09T07:46:12;98225.44;;;28.15;46.96
68669;BME280;55652;49.454;7.798;2022-09-09T07:48:43;98235.88;;;28.26;47.86
68669;BME280;55652;49.454;7.798;2022-09-09T07:51:12;98238.84;;;28.30;46.42
68669;BME280;55652;49.454;7.798;2022-09-09T07:53:43;98240.66;;;28.35;46.02
68669;BME280;55652;49.454;7.798;2022-09-09T07:56:11;98240.47;;;28.31;47.30
68669;BME280;55652;49.454;7.798;2022-09-09T07:58:38;98240.75;;;28.29;46.23
68669;BME280;55652;49.454;7.798;2022-09-09T08:01:34;98239.84;;;28.34;45.93
68669;BME280;55652;49.454;7.798;2022-09-09T08:04:07;98236.81;;;28.22;46.28
68669;BME280;55652;49.454;7.798;2022-09-09T08:06:39;98244.03;;;28.18;45.77
68669;BME280;55652;49.454;7.798;2022-09-09T08:09:07;98253.91;;;28.19;45.70
68669;BME280;55652;49.454;7.798;2022-09-09T08:11:33;98254.84;;;28.14;45.65
68669;BME280;55652;49.454;7.798;2022-09-09T08:13:59;98255.94;;;28.13;45.62
68669;BME280;55652;49.454;7.798;2022-09-09T08:16:31;98254.34;;;28.12;45.68
68669;BME280;55652;49.454;7.798;2022-09-09T08:18:57;98255.66;;;28.15;45.67
68669;BME280;55652;49.454;7.798;2022-09-09T08:21:25;98260.63;;;28.13;45.63
68669;BME280;55652;49.454;7.798;2022-09-09T08:23:55;98259.22;;;28.15;45.60
68669;BME280;55652;49.454;7.798;2022-09-09T08:26:25;98265.31;;;28.12;45.55
68669;BME280;55652;49.454;7.798;2022-09-09T08:28:53;98281.00;;;28.12;45.44
68669;BME280;55652;49.454;7.798;2022-09-09T08:33:47;98271.44;;;28.09;45.30
68669;BME280;55652;49.454;7.798;2022-09-09T08:36:15;98267.84;;;28.08;45.39
68669;BME280;55652;49.454;7.798;2022-09-09T08:38:46;98271.22;;;28.05;45.26
68669;BME280;55652;49.454;7.798;2022-09-09T08:57:55;98264.63;;;28.06;44.93
68669;BME280;55652;49.454;7.798;2022-09-09T09:00:21;98252.81;;;28.06;44.85
68669;BME280;55652;49.454;7.798;2022-09-09T09:03:09;98253.41;;;27.89;45.32
68669;BME280;55652;49.454;7.798;2022-09-09T09:06:06;98265.31;;;27.98;45.52
68669;BME280;55652;49.454;7.798;2022-09-09T09:11:14;98267.97;;;28.03;45.19
68669;BME280;55652;49.454;7.798;2022-09-09T09:14:00;98275.28;;;28.08;45.47
68669;BME280;55652;49.454;7.798;2022-09-09T09:19:26;98257.38;;;28.10;46.67
68669;BME280;55652;49.454;7.798;2022-09-09T09:22:10;98272.25;;;28.09;46.26
68669;BME280;55652;49.454;7.798;2022-09-09T09:25:32;98269.59;;;28.04;46.12
68669;BME280;55652;49.454;7.798;2022-09-09T09:30:35;98262.25;;;28.00;44.81
68669;BME280;55652;49.454;7.798;2022-09-09T09:35:50;98268.97;;;27.94;44.76
68669;BME280;55652;49.454;7.798;2022-09-09T09:38:22;98263.47;;;27.94;44.54
68669;BME280;55652;49.454;7.798;2022-09-09T09:40:51;98264.63;;;27.93;44.67
68669;BME280;55652;49.454;7.798;2022-09-09T09:43:32;98253.63;;;27.93;44.27
68669;BME280;55652;49.454;7.798;2022-09-09T09:45:58;98255.44;;;27.97;44.48
68669;BME280;55652;49.454;7.798;2022-09-09T09:48:26;98249.44;;;27.95;44.21
68669;BME280;55652;49.454;7.798;2022-09-09T09:50:58;98246.69;;;27.95;44.18
68669;BME280;55652;49.454;7.798;2022-09-09T09:53:27;98239.66;;;28.03;44.73
68669;BME280;55652;49.454;7.798;2022-09-09T09:56:03;98239.78;;;28.12;44.70
68669;BME280;55652;49.454;7.798;2022-09-09T10:01:28;98236.81;;;28.08;44.43
68669;BME280;55652;49.454;7.798;2022-09-09T10:04:17;98237.75;;;28.03;44.48
68669;BME280;55652;49.454;7.798;2022-09-09T10:06:44;98242.72;;;28.01;44.56
68669;BME280;55652;49.454;7.798;2022-09-09T10:09:30;98228.19;;;28.01;44.56
68669;BME280;55652;49.454;7.798;2022-09-09T10:22:35;98239.88;;;28.06;44.60
68669;BME280;55652;49.454;7.798;2022-09-09T10:27:47;98234.16;;;28.03;44.56
68669;BME280;55652;49.454;7.798;2022-09-09T10:30:21;98226.75;;;28.03;44.56
68669;BME280;55652;49.454;7.798;2022-09-09T10:33:09;98217.38;;;28.04;44.55
68669;BME280;55652;49.454;7.798;2022-09-09T10:35:50;98219.09;;;28.00;44.57
68669;BME280;55652;49.454;7.798;2022-09-09T10:55:24;98237.97;;;27.60;46.33
68669;BME280;55652;49.454;7.798;2022-09-09T10:57:54;98240.00;;;27.68;46.54
68669;BME280;55652;49.454;7.798;2022-09-09T11:03:03;98235.53;;;27.59;46.43
68669;BME280;55652;49.454;7.798;2022-09-09T11:06:04;98235.72;;;27.49;46.39
68669;BME280;55652;49.454;7.798;2022-09-09T11:08:34;98242.84;;;27.50;46.30
68669;BME280;55652;49.454;7.798;2022-09-09T11:13:49;98238.19;;;27.50;46.28
68669;BME280;55652;49.454;7.798;2022-09-09T11:16:38;98229.44;;;27.48;46.22
68669;BME280;55652;49.454;7.798;2022-09-09T11:21:52;98233.28;;;27.47;46.29
68669;BME280;55652;49.454;7.798;2022-09-09T11:24:44;98233.06;;;27.43;46.37
68669;BME280;55652;49.454;7.798;2022-09-09T11:32:39;98225.03;;;27.47;46.40
68669;BME280;55652;49.454;7.798;2022-09-09T11:38:19;98229.44;;;27.48;46.33
68669;BME280;55652;49.454;7.798;2022-09-09T11:40:47;98226.69;;;27.48;46.32
68669;BME280;55652;49.454;7.798;2022-09-09T11:43:28;98230.22;;;27.49;46.43
68669;BME280;55652;49.454;7.798;2022-09-09T11:45:58;98239.28;;;27.49;47.05
68669;BME280;55652;49.454;7.798;2022-09-09T11:48:46;98239.00;;;27.64;47.30
68669;BME280;55652;49.454;7.798;2022-09-09T11:51:13;98231.69;;;27.74;46.43
68669;BME280;55652;49.454;7.798;2022-09-09T11:53:53;98232.91;;;27.67;46.72
68669;BME280;55652;49.454;7.798;2022-09-09T11:56:32;98233.72;;;27.68;47.17
68669;BME280;55652;49.454;7.798;2022-09-09T11:59:02;98231.78;;;27.68;46.67
68669;BME280;55652;49.454;7.798;2022-09-09T12:01:41;98241.94;;;27.68;46.52
68669;BME280;55652;49.454;7.798;2022-09-09T12:11:49;98308.91;;;27.39;47.00
68669;BME280;55652;49.454;7.798;2022-09-09T12:19:39;98279.00;;;27.38;46.94
68669;BME280;55652;49.454;7.798;2022-09-09T12:24:49;98294.50;;;27.48;47.01
68669;BME280;55652;49.454;7.798;2022-09-09T12:27:28;98277.63;;;27.54;47.08
68669;BME280;55652;49.454;7.798;2022-09-09T12:30:09;98279.59;;;27.67;46.92
68669;BME280;55652;49.454;7.798;2022-09-09T12:32:36;98273.19;;;27.72;46.74
68669;BME280;55652;49.454;7.798;2022-09-09T12:35:18;98263.53;;;27.75;46.94
68669;BME280;55652;49.454;7.798;2022-09-09T12:38:20;98258.03;;;27.75;46.89
68669;BME280;55652;49.454;7.798;2022-09-09T12:40:56;98258.84;;;27.75;46.69
68669;BME280;55652;49.454;7.798;2022-09-09T12:43:24;98255.19;;;27.66;46.75
68669;BME280;55652;49.454;7.798;2022-09-09T12:45:57;98254.88;;;27.67;46.90
68669;BME280;55652;49.454;7.798;2022-09-09T12:48:41;98241.25;;;27.76;46.77
68669;BME280;55652;49.454;7.798;2022-09-09T12:51:23;98242.47;;;27.70;46.89
68669;BME280;55652;49.454;7.798;2022-09-09T12:53:51;98237.06;;;27.65;47.11
68669;BME280;55652;49.454;7.798;2022-09-09T12:56:26;98243.13;;;27.81;46.75
68669;BME280;55652;49.454;7.798;2022-09-09T12:58:54;98218.31;;;27.86;46.46
68669;BME280;55652;49.454;7.798;2022-09-09T13:03:47;98211.19;;;27.85;48.44
68669;BME280;55652;49.454;7.798;2022-09-09T13:06:20;98209.25;;;27.85;46.59
68669;BME280;55652;49.454;7.798;2022-09-09T13:08:48;98207.28;;;27.72;46.86
68669;BME280;55652;49.454;7.798;2022-09-09T13:11:19;98201.81;;;27.72;46.80
68669;BME280;55652;49.454;7.798;2022-09-09T13:13:54;98200.47;;;27.70;47.42
68669;BME280;55652;49.454;7.798;2022-09-09T13:16:34;98204.13;;;27.79;47.16
68669;BME280;55652;49.454;7.798;2022-09-09T13:19:09;98203.84;;;27.66;46.63
68669;BME280;55652;49.454;7.798;2022-09-09T13:21:39;98202.97;;;27.52;46.54
68669;BME280;55652;49.454;7.798;2022-09-09T13:24:33;98210.41;;;27.38;46.69
68669;BME280;55652;49.454;7.798;2022-09-09T13:27:05;98217.41;;;27.44;46.52
68669;BME280;55652;49.454;7.798;2022-09-09T13:29:52;98210.53;;;27.60;46.21
68669;BME280;55652;49.454;7.798;2022-09-09T13:32:22;98201.00;;;27.72;46.13
68669;BME280;55652;49.454;7.798;2022-09-09T13:39:54;98197.53;;;27.80;45.96
68669;BME280;55652;49.454;7.798;2022-09-09T13:42:25;98206.00;;;27.83;45.81
68669;BME280;55652;49.454;7.798;2022-09-09T13:44:51;98197.22;;;27.95;47.37
68669;BME280;55652;49.454;7.798;2022-09-09T13:47:19;98196.03;;;28.01;46.47
68669;BME280;55652;49.454;7.798;2022-09-09T13:49:45;98197.88;;;28.06;46.42
68669;BME280;55652;49.454;7.798;2022-09-09T13:52:14;98183.50;;;28.09;46.62
68669;BME280;55652;49.454;7.798;2022-09-09T13:54:41;98192.66;;;28.04;46.64
68669;BME280;55652;49.454;7.798;2022-09-09T13:57:19;98183.81;;;28.07;46.53
68669;BME280;55652;49.454;7.798;2022-09-09T13:59:47;98193.38;;;28.10;46.74
